createdAt,value
2022-11-16T00:02:14.622Z,19.20
2022-11-16T00:04:41.689Z,19.20
2022-11-16T00:07:08.369Z,19.21
2022-11-16T00:09:35.174Z,19.21
2022-11-16T00:12:07.138Z,19.22
2022-11-16T00:14:35.178Z,19.22
2022-11-16T00:17:02.378Z,19.21
2022-11-16T00:19:29.290Z,19.20
2022-11-16T00:21:55.982Z,19.21
2022-11-16T00:24:23.465Z,19.19
2022-11-16T00:26:50.539Z,19.18
2022-11-16T00:29:22.137Z,19.19
2022-11-16T00:31:49.442Z,19.17
2022-11-16T00:34:15.957Z,19.19
2022-11-16T00:36:42.707Z,19.20
2022-11-16T00:39:13.662Z,19.19
2022-11-16T00:41:41.169Z,19.19
2022-11-16T00:44:07.907Z,19.19
2022-11-16T00:46:34.413Z,19.17
2022-11-16T00:49:01.061Z,19.19
2022-11-16T00:51:27.545Z,19.19
2022-11-16T00:53:54.084Z,19.20
2022-11-16T00:56:20.745Z,19.19
2022-11-16T00:58:47.199Z,19.19
2022-11-16T01:01:14.176Z,19.19
2022-11-16T01:03:40.950Z,19.19
2022-11-16T01:06:10.935Z,19.18
2022-11-16T01:08:39.323Z,19.18
2022-11-16T01:11:25.737Z,19.18
2022-11-16T01:13:52.302Z,19.18
2022-11-16T01:16:20.931Z,19.19
2022-11-16T01:18:49.481Z,19.19
2022-11-16T01:21:16.602Z,19.17
2022-11-16T01:23:43.500Z,19.17
2022-11-16T01:26:09.967Z,19.17
2022-11-16T01:28:36.873Z,19.17
2022-11-16T01:31:03.972Z,19.17
2022-11-16T01:33:30.540Z,19.18
2022-11-16T01:35:57.065Z,19.16
2022-11-16T01:38:28.474Z,19.18
2022-11-16T01:40:56.247Z,19.17
2022-11-16T01:43:25.142Z,19.16
2022-11-16T01:45:51.659Z,19.18
2022-11-16T01:48:23.438Z,19.17
2022-11-16T01:50:50.249Z,19.20
2022-11-16T01:53:23.149Z,19.17
2022-11-16T01:55:49.932Z,19.19
2022-11-16T01:58:23.225Z,19.18
2022-11-16T02:00:50.105Z,19.16
2022-11-16T02:03:19.942Z,19.17
2022-11-16T02:05:56.125Z,19.14
2022-11-16T02:08:56.718Z,19.17
2022-11-16T02:11:39.747Z,19.16
2022-11-16T02:14:23.733Z,19.18
2022-11-16T02:17:12.524Z,19.17
2022-11-16T02:20:08.832Z,19.17
2022-11-16T02:22:56.840Z,19.18
2022-11-16T02:25:45.122Z,19.18
2022-11-16T02:28:56.437Z,19.17
2022-11-16T02:31:28.167Z,19.15
2022-11-16T02:33:56.959Z,19.17
2022-11-16T02:36:25.107Z,19.18
2022-11-16T02:38:58.153Z,19.17
2022-11-16T02:41:27.672Z,19.15
2022-11-16T02:44:06.089Z,19.15
2022-11-16T02:46:37.810Z,19.14
2022-11-16T02:49:09.589Z,19.17
2022-11-16T02:51:37.632Z,19.19
2022-11-16T02:54:11.514Z,19.16
2022-11-16T02:56:52.936Z,19.16
2022-11-16T02:59:21.181Z,19.14
2022-11-16T03:02:10.922Z,19.16
2022-11-16T03:04:48.820Z,19.16
2022-11-16T03:07:20.090Z,19.15
2022-11-16T03:09:49.177Z,19.16
2022-11-16T03:12:22.656Z,19.15
2022-11-16T03:14:53.927Z,19.16
2022-11-16T03:17:28.093Z,19.16
2022-11-16T03:20:06.840Z,19.16
2022-11-16T03:22:50.753Z,19.15
2022-11-16T03:25:20.001Z,19.14
2022-11-16T03:28:17.502Z,19.14
2022-11-16T03:30:54.848Z,19.15
2022-11-16T03:33:30.333Z,19.15
2022-11-16T03:36:04.918Z,19.14
2022-11-16T03:38:34.763Z,19.15
2022-11-16T03:41:06.185Z,19.14
2022-11-16T03:43:34.375Z,19.14
2022-11-16T03:46:00.915Z,19.14
2022-11-16T03:48:39.251Z,19.14
2022-11-16T03:51:09.174Z,19.15
2022-11-16T03:53:35.844Z,19.13
2022-11-16T03:56:03.175Z,19.16
2022-11-16T03:58:29.758Z,19.12
2022-11-16T04:00:56.311Z,19.14
2022-11-16T04:03:22.800Z,19.14
2022-11-16T04:06:07.931Z,19.14
2022-11-16T04:08:52.929Z,19.14
2022-11-16T04:11:40.821Z,19.13
2022-11-16T04:14:33.718Z,19.14
2022-11-16T04:17:18.815Z,19.11
2022-11-16T04:20:03.925Z,19.14
2022-11-16T04:23:00.823Z,19.12
2022-11-16T04:25:31.986Z,19.11
2022-11-16T04:28:13.997Z,19.12
2022-11-16T04:31:01.456Z,19.13
2022-11-16T04:33:47.933Z,19.14
2022-11-16T04:36:33.101Z,19.12
2022-11-16T04:38:59.584Z,19.11
2022-11-16T04:41:44.565Z,19.10
2022-11-16T04:44:11.425Z,19.10
2022-11-16T04:46:56.974Z,19.11
2022-11-16T04:49:23.450Z,19.09
2022-11-16T04:51:49.961Z,19.11
2022-11-16T04:54:16.428Z,19.10
2022-11-16T04:56:42.986Z,19.09
2022-11-16T04:59:09.784Z,19.09
2022-11-16T05:01:54.890Z,19.09
2022-11-16T05:04:21.437Z,19.09
2022-11-16T05:06:48.065Z,19.08
2022-11-16T05:09:15.390Z,19.10
2022-11-16T05:11:41.964Z,19.10
2022-11-16T05:14:09.980Z,19.09
2022-11-16T05:16:36.533Z,19.08
2022-11-16T05:19:22.400Z,19.06
2022-11-16T05:21:48.918Z,19.09
2022-11-16T05:24:33.684Z,19.09
2022-11-16T05:27:06.034Z,19.09
2022-11-16T05:29:33.229Z,19.08
2022-11-16T05:32:00.448Z,19.07
2022-11-16T05:34:26.954Z,19.07
2022-11-16T05:36:53.615Z,19.06
2022-11-16T05:39:20.452Z,19.06
2022-11-16T05:41:47.838Z,19.05
2022-11-16T05:44:15.163Z,19.05
2022-11-16T05:46:42.363Z,19.06
2022-11-16T05:49:09.511Z,19.06
2022-11-16T05:51:37.326Z,19.06
2022-11-16T05:54:04.843Z,19.04
2022-11-16T05:56:32.396Z,19.04
2022-11-16T05:58:59.185Z,19.04
2022-11-16T06:01:25.929Z,19.04
2022-11-16T06:03:53.203Z,19.04
2022-11-16T06:06:20.538Z,19.04
2022-11-16T06:08:47.328Z,19.05
2022-11-16T06:11:13.876Z,19.03
2022-11-16T06:13:40.383Z,19.05
2022-11-16T06:16:07.208Z,19.03
2022-11-16T06:18:37.530Z,19.05
2022-11-16T06:21:04.281Z,19.03
2022-11-16T06:23:30.803Z,19.01
2022-11-16T06:25:57.252Z,19.00
2022-11-16T06:28:23.793Z,19.00
2022-11-16T06:30:50.645Z,19.01
2022-11-16T06:33:18.018Z,19.00
2022-11-16T06:35:45.164Z,18.99
2022-11-16T06:38:18.295Z,19.00
2022-11-16T06:40:56.486Z,19.00
2022-11-16T06:43:23.652Z,18.99
2022-11-16T06:45:55.113Z,19.00
2022-11-16T06:48:22.550Z,19.00
2022-11-16T06:50:50.232Z,18.98
2022-11-16T06:53:17.042Z,18.99
2022-11-16T06:55:43.601Z,18.97
2022-11-16T06:58:10.244Z,18.97
2022-11-16T07:00:36.703Z,18.97
2022-11-16T07:03:04.137Z,18.99
2022-11-16T07:05:31.442Z,18.99
2022-11-16T07:07:58.183Z,18.98
2022-11-16T07:10:25.855Z,18.96
2022-11-16T07:12:52.422Z,18.97
2022-11-16T07:15:19.539Z,18.96
2022-11-16T07:17:46.138Z,18.94
2022-11-16T07:20:13.082Z,18.95
2022-11-16T07:22:39.700Z,18.96
2022-11-16T07:25:06.762Z,18.95
2022-11-16T07:27:33.310Z,18.93
2022-11-16T07:30:02.037Z,18.95
2022-11-16T07:32:32.163Z,18.94
2022-11-16T07:34:59.578Z,18.93
2022-11-16T07:37:26.259Z,18.93
2022-11-16T07:39:52.764Z,18.92
2022-11-16T07:42:19.469Z,18.93
2022-11-16T07:44:46.080Z,18.94
2022-11-16T07:47:12.513Z,18.92
2022-11-16T07:49:39.062Z,18.92
2022-11-16T07:52:08.775Z,18.91
2022-11-16T07:54:35.252Z,18.91
2022-11-16T07:57:01.797Z,18.90
2022-11-16T07:59:28.506Z,18.90
2022-11-16T08:01:55.829Z,18.91
2022-11-16T08:04:22.516Z,18.91
2022-11-16T08:06:51.639Z,18.91
2022-11-16T08:09:18.363Z,18.91
2022-11-16T08:11:44.921Z,18.89
2022-11-16T08:14:12.688Z,18.90
2022-11-16T08:16:39.149Z,18.90
2022-11-16T08:19:05.844Z,18.91
2022-11-16T08:21:32.286Z,18.88
2022-11-16T08:23:59.218Z,18.87
2022-11-16T08:26:25.962Z,18.90
2022-11-16T08:28:53.787Z,18.90
2022-11-16T08:31:24.064Z,18.92
2022-11-16T08:33:51.686Z,18.91
2022-11-16T08:36:18.771Z,18.91
2022-11-16T08:38:46.779Z,18.91
2022-11-16T08:41:13.599Z,18.91
2022-11-16T08:43:40.860Z,18.92
2022-11-16T08:46:08.601Z,18.92
2022-11-16T08:48:36.737Z,18.90
2022-11-16T08:51:19.947Z,18.90
2022-11-16T08:53:49.232Z,18.92
2022-11-16T08:56:18.146Z,18.91
2022-11-16T08:58:47.081Z,18.93
2022-11-16T09:01:19.792Z,18.91
2022-11-16T09:03:46.931Z,18.93
2022-11-16T09:06:14.226Z,18.90
2022-11-16T09:08:43.024Z,18.89
2022-11-16T09:11:12.385Z,18.91
2022-11-16T09:13:40.032Z,18.91
2022-11-16T09:16:06.793Z,18.89
2022-11-16T09:18:33.647Z,18.88
2022-11-16T09:21:00.334Z,18.90
2022-11-16T09:23:26.942Z,18.88
2022-11-16T09:25:53.745Z,18.87
2022-11-16T09:28:21.675Z,18.89
2022-11-16T09:30:50.434Z,18.90
2022-11-16T09:33:17.377Z,18.90
2022-11-16T09:35:44.085Z,18.90
2022-11-16T09:38:13.647Z,18.91
2022-11-16T09:40:46.259Z,18.91
2022-11-16T09:43:35.041Z,18.92
2022-11-16T09:46:26.965Z,18.93
2022-11-16T09:48:57.959Z,18.92
2022-11-16T09:51:27.151Z,18.93
2022-11-16T09:54:07.268Z,18.92
2022-11-16T09:56:37.915Z,18.92
2022-11-16T09:59:04.289Z,18.93
2022-11-16T10:01:42.811Z,18.93
2022-11-16T10:04:43.695Z,18.94
2022-11-16T10:07:19.113Z,18.93
2022-11-16T10:09:47.385Z,18.96
2022-11-16T10:12:30.159Z,18.94
2022-11-16T10:15:04.888Z,18.95
2022-11-16T10:17:49.397Z,18.93
2022-11-16T10:20:24.014Z,18.93
2022-11-16T10:23:08.443Z,18.95
2022-11-16T10:25:44.984Z,18.94
2022-11-16T10:28:17.661Z,18.95
2022-11-16T10:31:03.678Z,18.97
2022-11-16T10:33:36.246Z,18.97
2022-11-16T10:36:13.011Z,18.97
2022-11-16T10:38:41.519Z,18.97
2022-11-16T10:41:28.656Z,18.98
2022-11-16T10:43:57.698Z,18.97
2022-11-16T10:46:39.634Z,18.97
2022-11-16T10:49:42.454Z,18.98
2022-11-16T10:52:09.105Z,18.99
2022-11-16T10:54:38.842Z,18.99
2022-11-16T10:57:14.337Z,18.97
2022-11-16T10:59:42.567Z,18.98
2022-11-16T11:02:31.001Z,18.98
2022-11-16T11:05:03.497Z,18.97
2022-11-16T11:07:37.907Z,18.97
2022-11-16T11:10:06.300Z,18.98
2022-11-16T11:12:38.883Z,18.97
2022-11-16T11:15:11.261Z,18.95
2022-11-16T11:17:49.867Z,18.97
2022-11-16T11:20:16.454Z,18.97
2022-11-16T11:22:56.570Z,18.95
2022-11-16T11:25:38.152Z,18.98
2022-11-16T11:28:31.837Z,18.95
2022-11-16T11:31:25.635Z,18.97
2022-11-16T11:34:16.597Z,18.99
2022-11-16T11:37:00.876Z,18.97
2022-11-16T11:39:37.588Z,18.98
2022-11-16T11:42:21.453Z,18.97
2022-11-16T11:44:57.246Z,18.98
2022-11-16T11:50:25.291Z,18.99
2022-11-16T11:53:07.394Z,19.00
2022-11-16T11:55:34.524Z,19.00
2022-11-16T11:58:03.062Z,19.01
2022-11-16T12:00:43.605Z,18.99
2022-11-16T12:03:15.945Z,18.99
2022-11-16T12:05:52.754Z,18.98
2022-11-16T12:08:44.316Z,18.99
2022-11-16T12:11:29.220Z,19.00
2022-11-16T12:14:18.165Z,19.00
2022-11-16T12:17:03.360Z,19.02
2022-11-16T12:19:57.787Z,19.02
2022-11-16T12:22:47.282Z,19.00
2022-11-16T12:25:32.286Z,19.03
2022-11-16T12:28:04.100Z,19.05
2022-11-16T12:30:39.403Z,19.08
2022-11-16T12:33:23.872Z,19.10
2022-11-16T12:35:56.294Z,19.12
2022-11-16T12:38:50.084Z,19.11
2022-11-16T12:41:51.960Z,19.08
2022-11-16T12:44:44.997Z,19.08
2022-11-16T12:47:22.811Z,19.08
2022-11-16T12:50:14.244Z,19.09
2022-11-16T12:53:16.800Z,19.09
2022-11-16T12:56:28.584Z,19.08
2022-11-16T12:59:22.939Z,19.09
2022-11-16T13:02:08.636Z,19.07
2022-11-16T13:05:01.270Z,19.08
2022-11-16T13:07:35.084Z,19.08
2022-11-16T13:10:30.770Z,19.08
2022-11-16T13:15:51.695Z,19.09
2022-11-16T13:18:20.982Z,19.09
2022-11-16T13:21:01.001Z,19.10
2022-11-16T13:23:44.476Z,19.07
2022-11-16T13:26:32.466Z,19.07
2022-11-16T13:29:22.270Z,19.07
2022-11-16T13:32:07.206Z,19.07
2022-11-16T13:34:37.743Z,19.06
2022-11-16T13:37:38.197Z,19.06
2022-11-16T13:40:04.842Z,19.06
2022-11-16T13:42:38.201Z,19.05
2022-11-16T13:45:09.758Z,19.07
2022-11-16T13:47:37.398Z,19.06
2022-11-16T13:50:16.687Z,19.07
2022-11-16T13:55:41.843Z,19.06
2022-11-16T13:58:13.123Z,19.07
2022-11-16T14:00:40.793Z,19.03
2022-11-16T14:03:16.328Z,19.08
2022-11-16T14:05:45.323Z,19.05
2022-11-16T14:08:20.826Z,19.05
2022-11-16T14:10:50.132Z,19.05
2022-11-16T14:13:36.196Z,19.04
2022-11-16T14:16:14.986Z,19.06
2022-11-16T14:18:42.926Z,19.06
2022-11-16T14:21:46.614Z,19.05
2022-11-16T14:24:29.009Z,19.06
2022-11-16T14:27:14.690Z,19.07
2022-11-16T14:30:01.380Z,19.05
2022-11-16T14:32:57.690Z,19.05
2022-11-16T14:35:38.661Z,19.05
2022-11-16T14:38:36.369Z,19.05
2022-11-16T14:41:06.454Z,19.05
2022-11-16T14:43:40.559Z,19.03
2022-11-16T14:46:27.967Z,19.04
2022-11-16T14:48:56.231Z,19.03
2022-11-16T14:51:53.545Z,19.04
2022-11-16T14:54:28.554Z,19.03
2022-11-16T14:57:18.869Z,19.03
2022-11-16T14:59:45.513Z,19.04
2022-11-16T15:02:22.738Z,19.03
2022-11-16T15:04:50.845Z,19.03
2022-11-16T15:07:18.523Z,19.03
2022-11-16T15:09:49.527Z,19.01
2022-11-16T15:12:37.662Z,19.02
2022-11-16T15:15:25.083Z,19.02
2022-11-16T15:18:00.802Z,19.03
2022-11-16T15:20:30.314Z,19.03
2022-11-16T15:22:59.502Z,19.01
2022-11-16T15:25:40.114Z,19.01
2022-11-16T15:28:24.956Z,19.01
2022-11-16T15:31:14.850Z,19.00
2022-11-16T15:33:43.526Z,19.01
2022-11-16T15:36:38.162Z,18.99
2022-11-16T15:39:06.101Z,19.01
2022-11-16T15:41:33.634Z,18.99
2022-11-16T15:44:13.904Z,19.00
2022-11-16T15:46:45.180Z,19.00
2022-11-16T15:49:36.163Z,19.01
2022-11-16T15:52:02.766Z,18.98
2022-11-16T15:54:52.628Z,18.99
2022-11-16T15:57:20.827Z,19.01
2022-11-16T15:59:50.604Z,18.99
2022-11-16T16:02:20.606Z,18.99
2022-11-16T16:04:47.113Z,18.99
2022-11-16T16:07:37.515Z,18.99
2022-11-16T16:10:19.358Z,18.98
2022-11-16T16:12:54.057Z,18.99
2022-11-16T16:15:30.068Z,18.99
2022-11-16T16:17:58.755Z,18.99
2022-11-16T16:20:29.123Z,18.99
2022-11-16T16:23:11.472Z,19.00
2022-11-16T16:25:38.275Z,18.99
2022-11-16T16:28:05.331Z,18.97
2022-11-16T16:30:33.737Z,18.96
2022-11-16T16:33:01.036Z,18.98
2022-11-16T16:35:27.746Z,18.98
2022-11-16T16:38:00.720Z,18.98
2022-11-16T16:40:28.740Z,18.96
2022-11-16T16:42:56.717Z,18.97
2022-11-16T16:45:35.191Z,18.98
2022-11-16T16:48:01.667Z,18.97
2022-11-16T16:50:28.146Z,18.96
2022-11-16T16:52:54.769Z,18.95
2022-11-16T16:55:21.247Z,18.96
2022-11-16T16:57:47.941Z,18.95
2022-11-16T17:00:14.971Z,18.95
2022-11-16T17:02:41.420Z,18.96
2022-11-16T17:05:08.164Z,18.96
2022-11-16T17:07:34.785Z,18.94
2022-11-16T17:10:01.353Z,18.95
2022-11-16T17:12:27.915Z,18.95
2022-11-16T17:14:54.590Z,18.93
2022-11-16T17:17:24.243Z,18.93
2022-11-16T17:19:51.235Z,18.95
2022-11-16T17:22:19.202Z,18.93
2022-11-16T17:24:46.118Z,18.92
2022-11-16T17:27:12.609Z,18.93
2022-11-16T17:29:39.332Z,18.91
2022-11-16T17:32:06.136Z,18.92
2022-11-16T17:34:32.587Z,18.91
2022-11-16T17:36:59.086Z,18.92
2022-11-16T17:39:25.642Z,18.91
2022-11-16T17:41:52.110Z,18.91
2022-11-16T17:44:21.876Z,18.90
2022-11-16T17:46:49.245Z,18.92
2022-11-16T17:49:15.832Z,18.91
2022-11-16T17:51:42.557Z,18.89
2022-11-16T17:54:09.036Z,18.89
2022-11-16T17:56:35.674Z,18.89
2022-11-16T17:59:02.132Z,18.91
2022-11-16T18:01:28.826Z,18.90
2022-11-16T18:03:55.452Z,18.88
2022-11-16T18:06:23.708Z,18.90
2022-11-16T18:08:50.622Z,18.89
2022-11-16T18:11:20.582Z,18.89
2022-11-16T18:13:51.796Z,18.88
2022-11-16T18:16:21.232Z,18.87
2022-11-16T18:18:48.668Z,18.88
2022-11-16T18:21:20.735Z,18.87
2022-11-16T18:23:48.134Z,18.87
2022-11-16T18:26:17.140Z,18.85
2022-11-16T18:28:47.903Z,18.85
2022-11-16T18:31:18.145Z,18.87
2022-11-16T18:33:45.316Z,18.86
2022-11-16T18:36:13.016Z,18.86
2022-11-16T18:38:39.581Z,18.86
2022-11-16T18:41:11.875Z,18.86
2022-11-16T18:43:42.974Z,18.85
2022-11-16T18:46:09.446Z,18.85
2022-11-16T18:48:35.935Z,18.85
2022-11-16T18:51:04.495Z,18.83
2022-11-16T18:53:32.728Z,18.86
2022-11-16T18:55:59.642Z,18.84
2022-11-16T19:01:16.472Z,18.84
2022-11-16T19:03:43.042Z,18.85
2022-11-16T19:06:10.632Z,18.84
2022-11-16T19:08:39.517Z,18.85
2022-11-16T19:11:14.357Z,18.83
2022-11-16T19:13:42.827Z,18.83
2022-11-16T19:16:12.079Z,18.82
2022-11-16T19:18:38.958Z,18.83
2022-11-16T19:21:10.845Z,18.82
2022-11-16T19:23:39.521Z,18.83
2022-11-16T19:26:06.501Z,18.84
2022-11-16T19:28:37.729Z,18.82
2022-11-16T19:31:18.713Z,18.82
2022-11-16T19:33:45.900Z,18.81
2022-11-16T19:36:14.837Z,18.80
2022-11-16T19:38:41.930Z,18.78
2022-11-16T19:41:10.349Z,18.81
2022-11-16T19:43:37.357Z,18.81
2022-11-16T19:46:09.488Z,18.80
2022-11-16T19:48:36.298Z,18.79
2022-11-16T19:51:06.729Z,18.78
2022-11-16T19:53:34.212Z,18.80
2022-11-16T19:56:00.970Z,18.80
2022-11-16T19:58:27.850Z,18.79
2022-11-16T20:01:04.897Z,18.79
2022-11-16T20:03:31.748Z,18.78
2022-11-16T20:06:29.728Z,18.80
2022-11-16T20:09:00.667Z,18.79
2022-11-16T20:11:29.405Z,18.78
2022-11-16T20:13:57.432Z,18.78
2022-11-16T20:16:26.543Z,18.78
2022-11-16T20:18:53.459Z,18.78
2022-11-16T20:21:24.207Z,18.76
2022-11-16T20:23:54.085Z,18.76
2022-11-16T20:26:21.435Z,18.77
2022-11-16T20:28:51.019Z,18.77
2022-11-16T20:31:19.284Z,18.76
2022-11-16T20:34:04.031Z,18.76
2022-11-16T20:36:32.965Z,18.75
2022-11-16T20:39:00.380Z,18.77
2022-11-16T20:41:30.979Z,18.76
2022-11-16T20:43:59.267Z,18.76
2022-11-16T20:46:27.720Z,18.76
2022-11-16T20:48:57.000Z,18.75
2022-11-16T20:51:23.494Z,18.74
2022-11-16T20:53:50.410Z,18.75
2022-11-16T20:56:19.256Z,18.76
2022-11-16T20:58:46.671Z,18.74
2022-11-16T21:01:19.193Z,18.75
2022-11-16T21:03:46.244Z,18.72
2022-11-16T21:06:13.937Z,18.74
2022-11-16T21:08:41.587Z,18.74
2022-11-16T21:11:19.843Z,18.73
2022-11-16T21:14:05.285Z,18.72
2022-11-16T21:16:33.145Z,18.73
2022-11-16T21:19:00.447Z,18.72
2022-11-16T21:21:27.391Z,18.71
2022-11-16T21:23:54.904Z,18.71
2022-11-16T21:26:24.607Z,18.71
2022-11-16T21:28:51.475Z,18.72
2022-11-16T21:31:25.560Z,18.73
2022-11-16T21:33:53.357Z,18.73
2022-11-16T21:36:22.004Z,18.72
2022-11-16T21:38:48.933Z,18.71
2022-11-16T21:41:17.017Z,18.70
2022-11-16T21:43:44.267Z,18.70
2022-11-16T21:46:17.069Z,18.72
2022-11-16T21:48:44.248Z,18.69
2022-11-16T21:51:28.879Z,18.71
2022-11-16T21:53:55.478Z,18.69
2022-11-16T21:56:24.655Z,18.70
2022-11-16T21:58:52.845Z,18.69
2022-11-16T22:01:19.953Z,18.69
2022-11-16T22:03:46.584Z,18.67
2022-11-16T22:06:33.484Z,18.68
2022-11-16T22:09:00.718Z,18.67
2022-11-16T22:11:27.294Z,18.68
2022-11-16T22:13:53.843Z,18.66
2022-11-16T22:16:23.083Z,18.69
2022-11-16T22:18:50.258Z,18.66
2022-11-16T22:21:16.736Z,18.66
2022-11-16T22:23:43.163Z,18.66
2022-11-16T22:26:12.150Z,18.68
2022-11-16T22:28:39.284Z,18.67
2022-11-16T22:31:12.565Z,18.67
2022-11-16T22:33:39.637Z,18.67
2022-11-16T22:36:10.465Z,18.68
2022-11-16T22:38:37.161Z,18.67
2022-11-16T22:41:04.224Z,18.66
2022-11-16T22:43:31.782Z,18.67
2022-11-16T22:46:02.883Z,18.65
2022-11-16T22:48:38.392Z,18.65
2022-11-16T22:51:24.403Z,18.64
2022-11-16T22:53:55.455Z,18.65
2022-11-16T22:56:22.247Z,18.64
2022-11-16T22:58:48.864Z,18.66
2022-11-16T23:01:15.588Z,18.66
2022-11-16T23:03:42.260Z,18.67
2022-11-16T23:06:09.285Z,18.65
2022-11-16T23:08:36.256Z,18.64
2022-11-16T23:11:30.858Z,18.64
2022-11-16T23:14:16.229Z,18.63
2022-11-16T23:16:43.259Z,18.64
2022-11-16T23:19:30.598Z,18.65
2022-11-16T23:22:16.025Z,18.63
2022-11-16T23:25:01.919Z,18.64
2022-11-16T23:27:38.948Z,18.66
2022-11-16T23:30:12.178Z,18.62
2022-11-16T23:32:39.780Z,18.64
2022-11-16T23:35:06.487Z,18.64
2022-11-16T23:37:33.026Z,18.65
2022-11-16T23:39:59.496Z,18.61
2022-11-16T23:42:44.257Z,18.61
2022-11-16T23:45:10.716Z,18.63
2022-11-16T23:47:37.170Z,18.63
2022-11-16T23:50:04.100Z,18.61
2022-11-16T23:52:30.732Z,18.63
2022-11-16T23:54:57.313Z,18.61
2022-11-16T23:57:23.750Z,18.61
2022-11-16T23:59:50.260Z,18.60
